sensor_id;sensor_type;location;lat;lon;timestamp;P1;durP1;ratioP1;P2;durP2;ratioP2
71288;SDS011;59068;52.502;9.860;2022-08-03T00:02:00;3.07;;;2.77;;
71288;SDS011;59068;52.502;9.860;2022-08-03T00:04:28;2.90;;;2.70;;
71288;SDS011;59068;52.502;9.860;2022-08-03T00:06:54;2.93;;;2.73;;
71288;SDS011;59068;52.502;9.860;2022-08-03T00:09:21;3.43;;;2.83;;
71288;SDS011;59068;52.502;9.860;2022-08-03T00:11:46;2.93;;;2.73;;
71288;SDS011;59068;52.502;9.860;2022-08-03T00:14:12;2.80;;;2.60;;
71288;SDS011;59068;52.502;9.860;2022-08-03T00:16:39;3.07;;;2.70;;
71288;SDS011;59068;52.502;9.860;2022-08-03T00:19:05;3.13;;;2.93;;
71288;SDS011;59068;52.502;9.860;2022-08-03T00:21:32;3.40;;;2.57;;
71288;SDS011;59068;52.502;9.860;2022-08-03T00:23:58;2.90;;;2.70;;
71288;SDS011;59068;52.502;9.860;2022-08-03T00:26:24;3.17;;;2.97;;
71288;SDS011;59068;52.502;9.860;2022-08-03T00:28:51;2.83;;;2.70;;
71288;SDS011;59068;52.502;9.860;2022-08-03T00:31:16;3.10;;;2.90;;
71288;SDS011;59068;52.502;9.860;2022-08-03T00:33:42;2.90;;;2.70;;
71288;SDS011;59068;52.502;9.860;2022-08-03T00:36:09;3.73;;;3.43;;
71288;SDS011;59068;52.502;9.860;2022-08-03T00:38:37;2.90;;;2.70;;
71288;SDS011;59068;52.502;9.860;2022-08-03T00:41:03;2.90;;;2.80;;
71288;SDS011;59068;52.502;9.860;2022-08-03T00:43:30;3.30;;;3.00;;
71288;SDS011;59068;52.502;9.860;2022-08-03T00:45:55;3.00;;;2.70;;
71288;SDS011;59068;52.502;9.860;2022-08-03T00:48:21;3.30;;;3.00;;
71288;SDS011;59068;52.502;9.860;2022-08-03T00:50:48;3.13;;;2.93;;
71288;SDS011;59068;52.502;9.860;2022-08-03T00:53:13;3.20;;;2.90;;
71288;SDS011;59068;52.502;9.860;2022-08-03T00:55:40;3.17;;;2.97;;
71288;SDS011;59068;52.502;9.860;2022-08-03T00:58:07;3.13;;;2.93;;
71288;SDS011;59068;52.502;9.860;2022-08-03T01:00:37;3.40;;;3.20;;
71288;SDS011;59068;52.502;9.860;2022-08-03T01:03:05;3.07;;;2.87;;
71288;SDS011;59068;52.502;9.860;2022-08-03T01:17:08;3.27;;;2.97;;
71288;SDS011;59068;52.502;9.860;2022-08-03T01:25:18;2.77;;;2.57;;
71288;SDS011;59068;52.502;9.860;2022-08-03T01:31:20;4.07;;;3.10;;
71288;SDS011;59068;52.502;9.860;2022-08-03T01:33:53;4.33;;;3.20;;
71288;SDS011;59068;52.502;9.860;2022-08-03T01:36:24;3.63;;;3.30;;
71288;SDS011;59068;52.502;9.860;2022-08-03T01:38:54;3.13;;;2.93;;
71288;SDS011;59068;52.502;9.860;2022-08-03T01:41:24;3.00;;;2.80;;
71288;SDS011;59068;52.502;9.860;2022-08-03T01:43:51;3.20;;;2.90;;
71288;SDS011;59068;52.502;9.860;2022-08-03T01:46:18;3.27;;;3.07;;
71288;SDS011;59068;52.502;9.860;2022-08-03T01:48:46;2.90;;;2.67;;
71288;SDS011;59068;52.502;9.860;2022-08-03T01:51:12;3.00;;;2.80;;
71288;SDS011;59068;52.502;9.860;2022-08-03T01:53:41;3.10;;;2.80;;
71288;SDS011;59068;52.502;9.860;2022-08-03T01:56:08;3.30;;;3.10;;
71288;SDS011;59068;52.502;9.860;2022-08-03T01:58:36;3.10;;;2.90;;
71288;SDS011;59068;52.502;9.860;2022-08-03T02:01:02;3.40;;;3.10;;
71288;SDS011;59068;52.502;9.860;2022-08-03T02:03:28;3.40;;;3.17;;
71288;SDS011;59068;52.502;9.860;2022-08-03T02:05:57;2.87;;;2.67;;
71288;SDS011;59068;52.502;9.860;2022-08-03T02:08:24;3.50;;;3.20;;
71288;SDS011;59068;52.502;9.860;2022-08-03T02:10:52;3.87;;;3.10;;
71288;SDS011;59068;52.502;9.860;2022-08-03T02:13:19;3.50;;;2.90;;
71288;SDS011;59068;52.502;9.860;2022-08-03T02:15:44;3.70;;;3.40;;
71288;SDS011;59068;52.502;9.860;2022-08-03T02:18:11;2.90;;;2.67;;
71288;SDS011;59068;52.502;9.860;2022-08-03T02:20:38;3.10;;;2.80;;
71288;SDS011;59068;52.502;9.860;2022-08-03T02:23:05;3.43;;;3.00;;
71288;SDS011;59068;52.502;9.860;2022-08-03T02:25:31;3.07;;;2.87;;
71288;SDS011;59068;52.502;9.860;2022-08-03T02:28:01;3.40;;;3.10;;
71288;SDS011;59068;52.502;9.860;2022-08-03T02:30:32;3.10;;;2.90;;
71288;SDS011;59068;52.502;9.860;2022-08-03T02:33:09;3.53;;;3.23;;
71288;SDS011;59068;52.502;9.860;2022-08-03T02:35:35;3.63;;;3.33;;
71288;SDS011;59068;52.502;9.860;2022-08-03T02:38:03;3.07;;;2.87;;
71288;SDS011;59068;52.502;9.860;2022-08-03T02:40:30;3.43;;;3.20;;
71288;SDS011;59068;52.502;9.860;2022-08-03T02:43:04;3.17;;;3.03;;
71288;SDS011;59068;52.502;9.860;2022-08-03T02:45:32;3.00;;;2.80;;
71288;SDS011;59068;52.502;9.860;2022-08-03T02:48:02;3.37;;;3.07;;
71288;SDS011;59068;52.502;9.860;2022-08-03T02:50:28;3.00;;;2.70;;
71288;SDS011;59068;52.502;9.860;2022-08-03T02:52:56;3.00;;;2.80;;
71288;SDS011;59068;52.502;9.860;2022-08-03T02:55:24;3.30;;;3.03;;
71288;SDS011;59068;52.502;9.860;2022-08-03T02:57:51;3.13;;;2.93;;
71288;SDS011;59068;52.502;9.860;2022-08-03T03:00:17;3.00;;;2.77;;
71288;SDS011;59068;52.502;9.860;2022-08-03T03:02:44;3.30;;;2.97;;
71288;SDS011;59068;52.502;9.860;2022-08-03T03:05:09;3.10;;;2.90;;
71288;SDS011;59068;52.502;9.860;2022-08-03T03:07:37;3.20;;;3.00;;
71288;SDS011;59068;52.502;9.860;2022-08-03T03:10:03;3.70;;;3.00;;
71288;SDS011;59068;52.502;9.860;2022-08-03T03:12:30;3.33;;;3.13;;
71288;SDS011;59068;52.502;9.860;2022-08-03T03:14:57;3.53;;;3.33;;
71288;SDS011;59068;52.502;9.860;2022-08-03T03:17:24;2.60;;;2.40;;
71288;SDS011;59068;52.502;9.860;2022-08-03T03:19:50;3.80;;;3.10;;
71288;SDS011;59068;52.502;9.860;2022-08-03T03:22:17;3.00;;;2.80;;
71288;SDS011;59068;52.502;9.860;2022-08-03T03:24:43;3.27;;;2.97;;
71288;SDS011;59068;52.502;9.860;2022-08-03T03:27:12;3.00;;;2.80;;
71288;SDS011;59068;52.502;9.860;2022-08-03T03:29:39;3.17;;;2.90;;
71288;SDS011;59068;52.502;9.860;2022-08-03T03:32:05;2.73;;;2.63;;
71288;SDS011;59068;52.502;9.860;2022-08-03T03:34:32;3.30;;;3.00;;
71288;SDS011;59068;52.502;9.860;2022-08-03T03:37:00;3.00;;;2.80;;
71288;SDS011;59068;52.502;9.860;2022-08-03T03:39:25;3.30;;;3.10;;
71288;SDS011;59068;52.502;9.860;2022-08-03T03:41:52;3.30;;;3.00;;
71288;SDS011;59068;52.502;9.860;2022-08-03T03:44:18;3.40;;;2.97;;
71288;SDS011;59068;52.502;9.860;2022-08-03T03:46:44;2.80;;;2.60;;
71288;SDS011;59068;52.502;9.860;2022-08-03T03:49:11;3.07;;;2.90;;
71288;SDS011;59068;52.502;9.860;2022-08-03T03:51:37;3.43;;;2.90;;
71288;SDS011;59068;52.502;9.860;2022-08-03T03:54:04;2.93;;;2.73;;
71288;SDS011;59068;52.502;9.860;2022-08-03T03:56:32;2.90;;;2.70;;
71288;SDS011;59068;52.502;9.860;2022-08-03T03:58:58;3.10;;;2.90;;
71288;SDS011;59068;52.502;9.860;2022-08-03T04:01:25;3.20;;;3.00;;
71288;SDS011;59068;52.502;9.860;2022-08-03T04:03:51;3.57;;;3.27;;
71288;SDS011;59068;52.502;9.860;2022-08-03T04:06:16;3.00;;;2.80;;
71288;SDS011;59068;52.502;9.860;2022-08-03T04:09:02;3.43;;;3.13;;
71288;SDS011;59068;52.502;9.860;2022-08-03T04:11:47;3.17;;;3.07;;
71288;SDS011;59068;52.502;9.860;2022-08-03T04:14:17;3.07;;;2.73;;
71288;SDS011;59068;52.502;9.860;2022-08-03T04:17:06;3.20;;;2.90;;
71288;SDS011;59068;52.502;9.860;2022-08-03T04:19:37;3.77;;;3.00;;
71288;SDS011;59068;52.502;9.860;2022-08-03T04:22:11;3.17;;;2.97;;
71288;SDS011;59068;52.502;9.860;2022-08-03T04:24:40;3.40;;;3.10;;
71288;SDS011;59068;52.502;9.860;2022-08-03T04:27:13;3.03;;;2.83;;
71288;SDS011;59068;52.502;9.860;2022-08-03T04:29:40;2.70;;;2.50;;
71288;SDS011;59068;52.502;9.860;2022-08-03T04:32:11;2.80;;;2.60;;
71288;SDS011;59068;52.502;9.860;2022-08-03T04:34:38;4.23;;;2.77;;
71288;SDS011;59068;52.502;9.860;2022-08-03T04:37:08;3.87;;;3.07;;
71288;SDS011;59068;52.502;9.860;2022-08-03T04:39:35;3.20;;;2.30;;
71288;SDS011;59068;52.502;9.860;2022-08-03T04:42:02;4.90;;;2.30;;
71288;SDS011;59068;52.502;9.860;2022-08-03T04:44:30;4.83;;;2.60;;
71288;SDS011;59068;52.502;9.860;2022-08-03T04:47:04;3.20;;;2.83;;
71288;SDS011;59068;52.502;9.860;2022-08-03T04:49:30;2.97;;;2.30;;
71288;SDS011;59068;52.502;9.860;2022-08-03T04:51:57;6.07;;;2.40;;
71288;SDS011;59068;52.502;9.860;2022-08-03T04:54:23;2.83;;;2.30;;
71288;SDS011;59068;52.502;9.860;2022-08-03T04:56:48;3.07;;;2.77;;
71288;SDS011;59068;52.502;9.860;2022-08-03T04:59:15;2.70;;;2.43;;
71288;SDS011;59068;52.502;9.860;2022-08-03T05:01:41;4.23;;;2.30;;
71288;SDS011;59068;52.502;9.860;2022-08-03T05:04:08;2.40;;;2.20;;
71288;SDS011;59068;52.502;9.860;2022-08-03T05:06:34;2.60;;;2.40;;
71288;SDS011;59068;52.502;9.860;2022-08-03T05:09:00;2.87;;;2.60;;
71288;SDS011;59068;52.502;9.860;2022-08-03T05:11:26;3.87;;;2.20;;
71288;SDS011;59068;52.502;9.860;2022-08-03T05:13:52;2.60;;;2.40;;
71288;SDS011;59068;52.502;9.860;2022-08-03T05:16:19;4.50;;;2.60;;
71288;SDS011;59068;52.502;9.860;2022-08-03T05:18:44;2.70;;;2.50;;
71288;SDS011;59068;52.502;9.860;2022-08-03T05:21:11;3.73;;;2.43;;
71288;SDS011;59068;52.502;9.860;2022-08-03T05:23:42;4.57;;;2.53;;
71288;SDS011;59068;52.502;9.860;2022-08-03T05:26:08;2.87;;;2.50;;
71288;SDS011;59068;52.502;9.860;2022-08-03T05:28:37;2.47;;;2.37;;
71288;SDS011;59068;52.502;9.860;2022-08-03T05:31:03;2.70;;;2.50;;
71288;SDS011;59068;52.502;9.860;2022-08-03T05:33:29;2.53;;;2.40;;
71288;SDS011;59068;52.502;9.860;2022-08-03T05:35:55;2.47;;;2.27;;
71288;SDS011;59068;52.502;9.860;2022-08-03T05:38:20;2.83;;;2.10;;
71288;SDS011;59068;52.502;9.860;2022-08-03T05:40:46;3.43;;;2.30;;
71288;SDS011;59068;52.502;9.860;2022-08-03T05:43:13;2.47;;;2.27;;
71288;SDS011;59068;52.502;9.860;2022-08-03T05:45:39;3.70;;;2.57;;
71288;SDS011;59068;52.502;9.860;2022-08-03T05:48:06;2.80;;;2.50;;
71288;SDS011;59068;52.502;9.860;2022-08-03T05:50:32;2.40;;;2.20;;
71288;SDS011;59068;52.502;9.860;2022-08-03T05:52:57;3.03;;;2.43;;
71288;SDS011;59068;52.502;9.860;2022-08-03T05:55:22;2.30;;;2.20;;
71288;SDS011;59068;52.502;9.860;2022-08-03T05:57:49;2.70;;;2.30;;
71288;SDS011;59068;52.502;9.860;2022-08-03T06:00:14;5.27;;;2.30;;
71288;SDS011;59068;52.502;9.860;2022-08-03T06:02:42;2.30;;;2.20;;
71288;SDS011;59068;52.502;9.860;2022-08-03T06:05:08;3.00;;;2.80;;
71288;SDS011;59068;52.502;9.860;2022-08-03T06:07:33;2.50;;;2.30;;
71288;SDS011;59068;52.502;9.860;2022-08-03T06:09:59;2.30;;;2.10;;
71288;SDS011;59068;52.502;9.860;2022-08-03T06:12:26;2.53;;;2.40;;
71288;SDS011;59068;52.502;9.860;2022-08-03T06:14:51;2.57;;;2.23;;
71288;SDS011;59068;52.502;9.860;2022-08-03T06:17:17;3.77;;;2.40;;
71288;SDS011;59068;52.502;9.860;2022-08-03T06:19:42;3.23;;;2.43;;
71288;SDS011;59068;52.502;9.860;2022-08-03T06:22:09;2.80;;;1.97;;
71288;SDS011;59068;52.502;9.860;2022-08-03T06:24:36;2.77;;;2.30;;
71288;SDS011;59068;52.502;9.860;2022-08-03T06:27:04;2.40;;;2.20;;
71288;SDS011;59068;52.502;9.860;2022-08-03T06:29:29;2.40;;;2.20;;
71288;SDS011;59068;52.502;9.860;2022-08-03T06:31:57;2.60;;;2.40;;
71288;SDS011;59068;52.502;9.860;2022-08-03T06:34:23;2.77;;;2.37;;
71288;SDS011;59068;52.502;9.860;2022-08-03T06:36:49;2.20;;;2.00;;
71288;SDS011;59068;52.502;9.860;2022-08-03T06:39:15;2.30;;;2.10;;
71288;SDS011;59068;52.502;9.860;2022-08-03T06:41:41;2.30;;;2.03;;
71288;SDS011;59068;52.502;9.860;2022-08-03T06:44:07;3.40;;;2.30;;
71288;SDS011;59068;52.502;9.860;2022-08-03T06:46:32;3.23;;;2.40;;
71288;SDS011;59068;52.502;9.860;2022-08-03T06:48:58;2.27;;;2.00;;
71288;SDS011;59068;52.502;9.860;2022-08-03T06:51:23;2.13;;;1.93;;
71288;SDS011;59068;52.502;9.860;2022-08-03T06:53:49;2.53;;;2.00;;
71288;SDS011;59068;52.502;9.860;2022-08-03T06:56:14;3.97;;;2.27;;
71288;SDS011;59068;52.502;9.860;2022-08-03T06:58:39;2.60;;;2.40;;
71288;SDS011;59068;52.502;9.860;2022-08-03T07:01:05;2.97;;;2.20;;
71288;SDS011;59068;52.502;9.860;2022-08-03T07:03:30;2.93;;;2.30;;
71288;SDS011;59068;52.502;9.860;2022-08-03T07:05:56;2.60;;;2.33;;
71288;SDS011;59068;52.502;9.860;2022-08-03T07:08:21;2.20;;;2.00;;
71288;SDS011;59068;52.502;9.860;2022-08-03T07:10:48;1.90;;;1.80;;
71288;SDS011;59068;52.502;9.860;2022-08-03T07:13:14;3.30;;;1.80;;
71288;SDS011;59068;52.502;9.860;2022-08-03T07:15:39;1.97;;;1.87;;
71288;SDS011;59068;52.502;9.860;2022-08-03T07:18:05;2.33;;;2.00;;
71288;SDS011;59068;52.502;9.860;2022-08-03T07:20:30;1.70;;;1.60;;
71288;SDS011;59068;52.502;9.860;2022-08-03T07:22:56;2.33;;;1.83;;
71288;SDS011;59068;52.502;9.860;2022-08-03T07:25:21;3.17;;;1.80;;
71288;SDS011;59068;52.502;9.860;2022-08-03T07:27:47;2.30;;;2.00;;
71288;SDS011;59068;52.502;9.860;2022-08-03T07:30:13;1.77;;;1.67;;
71288;SDS011;59068;52.502;9.860;2022-08-03T07:32:39;2.60;;;2.10;;
71288;SDS011;59068;52.502;9.860;2022-08-03T07:35:05;2.50;;;1.70;;
71288;SDS011;59068;52.502;9.860;2022-08-03T07:37:31;2.53;;;1.70;;
71288;SDS011;59068;52.502;9.860;2022-08-03T07:39:58;4.33;;;2.20;;
71288;SDS011;59068;52.502;9.860;2022-08-03T07:42:25;3.67;;;1.83;;
71288;SDS011;59068;52.502;9.860;2022-08-03T07:44:51;4.70;;;1.80;;
71288;SDS011;59068;52.502;9.860;2022-08-03T07:47:20;3.10;;;1.90;;
71288;SDS011;59068;52.502;9.860;2022-08-03T07:49:48;2.10;;;2.00;;
71288;SDS011;59068;52.502;9.860;2022-08-03T07:52:13;1.73;;;1.60;;
71288;SDS011;59068;52.502;9.860;2022-08-03T07:54:57;1.93;;;1.67;;
71288;SDS011;59068;52.502;9.860;2022-08-03T07:57:23;1.90;;;1.60;;
71288;SDS011;59068;52.502;9.860;2022-08-03T07:59:48;2.10;;;1.87;;
71288;SDS011;59068;52.502;9.860;2022-08-03T08:02:13;1.60;;;1.50;;
71288;SDS011;59068;52.502;9.860;2022-08-03T08:04:39;2.47;;;1.60;;
71288;SDS011;59068;52.502;9.860;2022-08-03T08:07:05;2.20;;;2.00;;
71288;SDS011;59068;52.502;9.860;2022-08-03T08:09:30;2.80;;;1.60;;
71288;SDS011;59068;52.502;9.860;2022-08-03T08:11:56;2.23;;;1.63;;
71288;SDS011;59068;52.502;9.860;2022-08-03T08:14:21;2.57;;;1.80;;
71288;SDS011;59068;52.502;9.860;2022-08-03T08:16:46;2.43;;;1.63;;
71288;SDS011;59068;52.502;9.860;2022-08-03T08:19:13;1.83;;;1.57;;
71288;SDS011;59068;52.502;9.860;2022-08-03T08:21:42;2.40;;;1.63;;
71288;SDS011;59068;52.502;9.860;2022-08-03T08:24:07;5.20;;;1.63;;
71288;SDS011;59068;52.502;9.860;2022-08-03T08:26:33;1.77;;;1.50;;
71288;SDS011;59068;52.502;9.860;2022-08-03T08:29:00;2.67;;;1.63;;
71288;SDS011;59068;52.502;9.860;2022-08-03T08:31:25;3.67;;;1.50;;
71288;SDS011;59068;52.502;9.860;2022-08-03T08:33:51;1.73;;;1.63;;
71288;SDS011;59068;52.502;9.860;2022-08-03T08:36:16;2.63;;;1.53;;
71288;SDS011;59068;52.502;9.860;2022-08-03T08:38:42;1.53;;;1.43;;
71288;SDS011;59068;52.502;9.860;2022-08-03T08:41:10;3.07;;;1.70;;
71288;SDS011;59068;52.502;9.860;2022-08-03T08:43:37;3.00;;;1.37;;
71288;SDS011;59068;52.502;9.860;2022-08-03T08:46:12;5.87;;;1.60;;
71288;SDS011;59068;52.502;9.860;2022-08-03T08:48:40;2.43;;;1.37;;
71288;SDS011;59068;52.502;9.860;2022-08-03T08:51:07;3.37;;;1.60;;
71288;SDS011;59068;52.502;9.860;2022-08-03T08:53:34;3.83;;;1.83;;
71288;SDS011;59068;52.502;9.860;2022-08-03T08:56:02;2.70;;;1.60;;
71288;SDS011;59068;52.502;9.860;2022-08-03T08:58:29;6.20;;;2.40;;
71288;SDS011;59068;52.502;9.860;2022-08-03T09:00:58;3.43;;;1.43;;
71288;SDS011;59068;52.502;9.860;2022-08-03T09:03:24;3.47;;;1.70;;
71288;SDS011;59068;52.502;9.860;2022-08-03T09:05:52;3.03;;;1.60;;
71288;SDS011;59068;52.502;9.860;2022-08-03T09:08:17;3.37;;;1.50;;
71288;SDS011;59068;52.502;9.860;2022-08-03T09:10:43;2.07;;;1.50;;
71288;SDS011;59068;52.502;9.860;2022-08-03T09:13:10;3.00;;;1.73;;
71288;SDS011;59068;52.502;9.860;2022-08-03T09:15:36;3.37;;;1.50;;
71288;SDS011;59068;52.502;9.860;2022-08-03T09:18:04;2.00;;;1.80;;
71288;SDS011;59068;52.502;9.860;2022-08-03T09:20:31;1.87;;;1.57;;
71288;SDS011;59068;52.502;9.860;2022-08-03T09:25:43;3.33;;;1.60;;
71288;SDS011;59068;52.502;9.860;2022-08-03T09:30:59;2.97;;;1.70;;
71288;SDS011;59068;52.502;9.860;2022-08-03T09:33:25;2.23;;;1.60;;
71288;SDS011;59068;52.502;9.860;2022-08-03T09:35:52;2.00;;;1.50;;
71288;SDS011;59068;52.502;9.860;2022-08-03T09:38:22;2.43;;;1.33;;
71288;SDS011;59068;52.502;9.860;2022-08-03T09:40:51;2.67;;;1.43;;
71288;SDS011;59068;52.502;9.860;2022-08-03T09:43:18;2.20;;;1.30;;
71288;SDS011;59068;52.502;9.860;2022-08-03T09:45:45;2.07;;;1.23;;
71288;SDS011;59068;52.502;9.860;2022-08-03T09:50:57;3.30;;;1.40;;
71288;SDS011;59068;52.502;9.860;2022-08-03T09:53:24;2.17;;;1.30;;
71288;SDS011;59068;52.502;9.860;2022-08-03T09:58:42;1.10;;;0.93;;
71288;SDS011;59068;52.502;9.860;2022-08-03T10:01:10;1.90;;;1.00;;
71288;SDS011;59068;52.502;9.860;2022-08-03T10:03:37;1.13;;;1.00;;
71288;SDS011;59068;52.502;9.860;2022-08-03T10:06:23;1.87;;;1.10;;
71288;SDS011;59068;52.502;9.860;2022-08-03T10:09:12;2.23;;;1.63;;
71288;SDS011;59068;52.502;9.860;2022-08-03T10:11:56;1.67;;;1.00;;
71288;SDS011;59068;52.502;9.860;2022-08-03T10:14:23;3.07;;;1.10;;
71288;SDS011;59068;52.502;9.860;2022-08-03T10:16:54;3.50;;;1.00;;
71288;SDS011;59068;52.502;9.860;2022-08-03T10:19:20;2.93;;;1.40;;
71288;SDS011;59068;52.502;9.860;2022-08-03T10:21:49;2.30;;;0.80;;
71288;SDS011;59068;52.502;9.860;2022-08-03T10:24:19;3.30;;;0.93;;
71288;SDS011;59068;52.502;9.860;2022-08-03T10:26:48;0.90;;;0.90;;
71288;SDS011;59068;52.502;9.860;2022-08-03T10:29:17;1.30;;;1.00;;
71288;SDS011;59068;52.502;9.860;2022-08-03T10:31:45;0.83;;;0.73;;
71288;SDS011;59068;52.502;9.860;2022-08-03T10:34:21;1.43;;;1.00;;
71288;SDS011;59068;52.502;9.860;2022-08-03T10:36:48;2.80;;;1.10;;
71288;SDS011;59068;52.502;9.860;2022-08-03T10:39:20;2.67;;;1.20;;
71288;SDS011;59068;52.502;9.860;2022-08-03T10:41:46;2.73;;;1.10;;
71288;SDS011;59068;52.502;9.860;2022-08-03T10:44:19;2.60;;;1.00;;
71288;SDS011;59068;52.502;9.860;2022-08-03T10:46:48;4.03;;;1.07;;
71288;SDS011;59068;52.502;9.860;2022-08-03T10:49:18;2.03;;;1.00;;
71288;SDS011;59068;52.502;9.860;2022-08-03T10:51:45;2.67;;;1.20;;
71288;SDS011;59068;52.502;9.860;2022-08-03T10:57:52;1.40;;;1.00;;
71288;SDS011;59068;52.502;9.860;2022-08-03T11:00:24;2.03;;;1.33;;
71288;SDS011;59068;52.502;9.860;2022-08-03T11:05:39;1.40;;;1.03;;
71288;SDS011;59068;52.502;9.860;2022-08-03T11:10:55;1.57;;;0.93;;
71288;SDS011;59068;52.502;9.860;2022-08-03T11:13:23;1.90;;;1.03;;
71288;SDS011;59068;52.502;9.860;2022-08-03T11:15:52;1.47;;;1.03;;
71288;SDS011;59068;52.502;9.860;2022-08-03T11:18:21;1.57;;;0.90;;
71288;SDS011;59068;52.502;9.860;2022-08-03T11:20:54;1.87;;;1.03;;
71288;SDS011;59068;52.502;9.860;2022-08-03T11:26:16;2.90;;;1.07;;
71288;SDS011;59068;52.502;9.860;2022-08-03T11:28:45;2.57;;;1.37;;
71288;SDS011;59068;52.502;9.860;2022-08-03T11:34:02;1.50;;;1.20;;
71288;SDS011;59068;52.502;9.860;2022-08-03T11:36:27;3.33;;;1.20;;
71288;SDS011;59068;52.502;9.860;2022-08-03T11:39:26;3.03;;;1.30;;
71288;SDS011;59068;52.502;9.860;2022-08-03T11:41:44;3.40;;;1.13;;
71288;SDS011;59068;52.502;9.860;2022-08-03T11:44:15;1.13;;;1.00;;
71288;SDS011;59068;52.502;9.860;2022-08-03T11:47:04;1.77;;;1.10;;
71288;SDS011;59068;52.502;9.860;2022-08-03T11:49:29;1.90;;;1.03;;
71288;SDS011;59068;52.502;9.860;2022-08-03T11:51:54;1.73;;;1.00;;
71288;SDS011;59068;52.502;9.860;2022-08-03T11:54:20;1.03;;;1.00;;
71288;SDS011;59068;52.502;9.860;2022-08-03T11:56:47;1.93;;;1.17;;
71288;SDS011;59068;52.502;9.860;2022-08-03T11:59:13;2.90;;;1.30;;
71288;SDS011;59068;52.502;9.860;2022-08-03T12:01:39;2.83;;;1.20;;
71288;SDS011;59068;52.502;9.860;2022-08-03T12:04:04;1.73;;;1.13;;
71288;SDS011;59068;52.502;9.860;2022-08-03T12:06:31;1.70;;;1.23;;
71288;SDS011;59068;52.502;9.860;2022-08-03T12:09:16;2.57;;;1.50;;
71288;SDS011;59068;52.502;9.860;2022-08-03T12:11:42;2.73;;;1.20;;
71288;SDS011;59068;52.502;9.860;2022-08-03T12:14:07;2.03;;;1.30;;
71288;SDS011;59068;52.502;9.860;2022-08-03T12:16:32;1.37;;;1.17;;
71288;SDS011;59068;52.502;9.860;2022-08-03T12:19:02;3.70;;;1.57;;
71288;SDS011;59068;52.502;9.860;2022-08-03T12:21:29;2.40;;;1.40;;
71288;SDS011;59068;52.502;9.860;2022-08-03T12:23:55;1.73;;;1.20;;
71288;SDS011;59068;52.502;9.860;2022-08-03T12:26:23;2.13;;;1.03;;
71288;SDS011;59068;52.502;9.860;2022-08-03T12:28:49;2.50;;;1.30;;
71288;SDS011;59068;52.502;9.860;2022-08-03T12:31:14;1.73;;;1.17;;
71288;SDS011;59068;52.502;9.860;2022-08-03T12:34:00;1.87;;;1.00;;
71288;SDS011;59068;52.502;9.860;2022-08-03T12:36:31;1.77;;;1.10;;
71288;SDS011;59068;52.502;9.860;2022-08-03T12:38:59;2.33;;;1.10;;
71288;SDS011;59068;52.502;9.860;2022-08-03T12:41:29;1.90;;;0.90;;
71288;SDS011;59068;52.502;9.860;2022-08-03T12:44:05;1.23;;;0.80;;
71288;SDS011;59068;52.502;9.860;2022-08-03T12:46:38;2.53;;;0.83;;
71288;SDS011;59068;52.502;9.860;2022-08-03T12:49:08;2.50;;;1.30;;
71288;SDS011;59068;52.502;9.860;2022-08-03T12:54:08;2.60;;;1.00;;
71288;SDS011;59068;52.502;9.860;2022-08-03T12:56:34;1.80;;;0.80;;
71288;SDS011;59068;52.502;9.860;2022-08-03T12:59:00;2.07;;;1.37;;
71288;SDS011;59068;52.502;9.860;2022-08-03T13:01:46;2.20;;;0.83;;
71288;SDS011;59068;52.502;9.860;2022-08-03T13:04:12;1.23;;;1.00;;
71288;SDS011;59068;52.502;9.860;2022-08-03T13:07:05;2.87;;;0.97;;
71288;SDS011;59068;52.502;9.860;2022-08-03T13:10:05;1.67;;;0.70;;
71288;SDS011;59068;52.502;9.860;2022-08-03T13:12:26;3.30;;;0.90;;
71288;SDS011;59068;52.502;9.860;2022-08-03T13:14:57;2.40;;;1.00;;
71288;SDS011;59068;52.502;9.860;2022-08-03T13:17:24;2.57;;;1.00;;
71288;SDS011;59068;52.502;9.860;2022-08-03T13:19:52;2.10;;;1.07;;
71288;SDS011;59068;52.502;9.860;2022-08-03T13:24:45;2.03;;;1.37;;
71288;SDS011;59068;52.502;9.860;2022-08-03T13:27:11;1.63;;;1.10;;
71288;SDS011;59068;52.502;9.860;2022-08-03T13:29:38;2.40;;;1.23;;
71288;SDS011;59068;52.502;9.860;2022-08-03T13:32:04;2.13;;;1.00;;
71288;SDS011;59068;52.502;9.860;2022-08-03T13:34:31;2.07;;;1.00;;
71288;SDS011;59068;52.502;9.860;2022-08-03T13:36:58;1.10;;;1.00;;
71288;SDS011;59068;52.502;9.860;2022-08-03T13:39:23;3.07;;;1.20;;
71288;SDS011;59068;52.502;9.860;2022-08-03T13:41:49;1.47;;;1.27;;
71288;SDS011;59068;52.502;9.860;2022-08-03T13:44:14;2.13;;;1.17;;
71288;SDS011;59068;52.502;9.860;2022-08-03T13:46:40;1.70;;;1.30;;
71288;SDS011;59068;52.502;9.860;2022-08-03T13:49:05;1.27;;;0.90;;
71288;SDS011;59068;52.502;9.860;2022-08-03T13:51:31;1.93;;;1.00;;
71288;SDS011;59068;52.502;9.860;2022-08-03T13:53:57;1.13;;;1.00;;
71288;SDS011;59068;52.502;9.860;2022-08-03T13:56:24;1.70;;;1.10;;
71288;SDS011;59068;52.502;9.860;2022-08-03T13:58:50;1.90;;;1.20;;
71288;SDS011;59068;52.502;9.860;2022-08-03T14:01:15;4.50;;;1.20;;
71288;SDS011;59068;52.502;9.860;2022-08-03T14:03:40;3.27;;;0.87;;
71288;SDS011;59068;52.502;9.860;2022-08-03T14:06:06;1.20;;;1.10;;
71288;SDS011;59068;52.502;9.860;2022-08-03T14:08:31;2.50;;;0.90;;
71288;SDS011;59068;52.502;9.860;2022-08-03T14:10:56;0.80;;;0.80;;
71288;SDS011;59068;52.502;9.860;2022-08-03T14:13:22;1.93;;;0.73;;
71288;SDS011;59068;52.502;9.860;2022-08-03T14:15:48;2.73;;;1.20;;
71288;SDS011;59068;52.502;9.860;2022-08-03T14:18:14;3.53;;;0.90;;
71288;SDS011;59068;52.502;9.860;2022-08-03T14:20:39;1.87;;;0.90;;
71288;SDS011;59068;52.502;9.860;2022-08-03T14:23:05;1.77;;;1.10;;
71288;SDS011;59068;52.502;9.860;2022-08-03T14:25:31;1.33;;;0.80;;
71288;SDS011;59068;52.502;9.860;2022-08-03T14:27:56;1.03;;;0.93;;
71288;SDS011;59068;52.502;9.860;2022-08-03T14:30:22;2.30;;;0.90;;
71288;SDS011;59068;52.502;9.860;2022-08-03T14:32:47;3.47;;;1.27;;
71288;SDS011;59068;52.502;9.860;2022-08-03T14:35:12;1.87;;;0.80;;
71288;SDS011;59068;52.502;9.860;2022-08-03T14:37:38;0.80;;;0.80;;
71288;SDS011;59068;52.502;9.860;2022-08-03T14:40:04;0.80;;;0.80;;
71288;SDS011;59068;52.502;9.860;2022-08-03T14:42:30;1.87;;;0.83;;
71288;SDS011;59068;52.502;9.860;2022-08-03T14:44:55;2.03;;;0.90;;
71288;SDS011;59068;52.502;9.860;2022-08-03T14:47:21;2.00;;;1.10;;
71288;SDS011;59068;52.502;9.860;2022-08-03T14:49:46;1.27;;;0.80;;
71288;SDS011;59068;52.502;9.860;2022-08-03T14:52:12;1.07;;;0.83;;
71288;SDS011;59068;52.502;9.860;2022-08-03T14:54:37;1.93;;;0.70;;
71288;SDS011;59068;52.502;9.860;2022-08-03T14:57:02;0.80;;;0.80;;
71288;SDS011;59068;52.502;9.860;2022-08-03T14:59:28;1.50;;;0.93;;
71288;SDS011;59068;52.502;9.860;2022-08-03T15:01:53;1.10;;;0.90;;
71288;SDS011;59068;52.502;9.860;2022-08-03T15:04:19;2.27;;;0.60;;
71288;SDS011;59068;52.502;9.860;2022-08-03T15:06:45;0.70;;;0.70;;
71288;SDS011;59068;52.502;9.860;2022-08-03T15:09:10;2.33;;;0.90;;
71288;SDS011;59068;52.502;9.860;2022-08-03T15:11:36;1.63;;;0.87;;
71288;SDS011;59068;52.502;9.860;2022-08-03T15:14:01;1.03;;;0.57;;
71288;SDS011;59068;52.502;9.860;2022-08-03T15:16:26;2.67;;;1.00;;
71288;SDS011;59068;52.502;9.860;2022-08-03T15:18:52;0.83;;;0.80;;
71288;SDS011;59068;52.502;9.860;2022-08-03T15:21:17;1.90;;;0.80;;
71288;SDS011;59068;52.502;9.860;2022-08-03T15:23:43;1.73;;;0.80;;
71288;SDS011;59068;52.502;9.860;2022-08-03T15:26:08;1.30;;;1.00;;
71288;SDS011;59068;52.502;9.860;2022-08-03T15:28:34;1.80;;;0.90;;
71288;SDS011;59068;52.502;9.860;2022-08-03T15:30:59;1.37;;;0.90;;
71288;SDS011;59068;52.502;9.860;2022-08-03T15:33:26;1.77;;;0.90;;
71288;SDS011;59068;52.502;9.860;2022-08-03T15:35:53;0.80;;;0.80;;
71288;SDS011;59068;52.502;9.860;2022-08-03T15:38:20;2.10;;;0.87;;
71288;SDS011;59068;52.502;9.860;2022-08-03T15:40:51;1.87;;;0.87;;
71288;SDS011;59068;52.502;9.860;2022-08-03T15:43:21;1.23;;;0.97;;